sensor_id;sensor_type;location;lat;lon;timestamp;P1;durP1;ratioP1;P2;durP2;ratioP2
8183;SDS011;4133;48.752;9.088;2023-04-21T00:00:05;18.83;;;12.03;;
8183;SDS011;4133;48.752;9.088;2023-04-21T00:02:33;14.07;;;11.47;;
8183;SDS011;4133;48.752;9.088;2023-04-21T00:05:04;43.30;;;13.23;;
8183;SDS011;4133;48.752;9.088;2023-04-21T00:07:31;52.90;;;13.53;;
8183;SDS011;4133;48.752;9.088;2023-04-21T00:09:58;92.70;;;17.00;;
8183;SDS011;4133;48.752;9.088;2023-04-21T00:12:24;49.20;;;13.10;;
8183;SDS011;4133;48.752;9.088;2023-04-21T00:14:50;28.50;;;12.50;;
8183;SDS011;4133;48.752;9.088;2023-04-21T00:17:16;23.67;;;13.73;;
8183;SDS011;4133;48.752;9.088;2023-04-21T00:19:42;21.63;;;12.10;;
8183;SDS011;4133;48.752;9.088;2023-04-21T00:22:08;52.30;;;12.87;;
8183;SDS011;4133;48.752;9.088;2023-04-21T00:24:38;78.80;;;13.53;;
8183;SDS011;4133;48.752;9.088;2023-04-21T00:27:04;36.53;;;12.90;;
8183;SDS011;4133;48.752;9.088;2023-04-21T00:29:30;62.73;;;12.57;;
8183;SDS011;4133;48.752;9.088;2023-04-21T00:31:57;51.63;;;13.00;;
8183;SDS011;4133;48.752;9.088;2023-04-21T00:34:23;15.73;;;11.40;;
8183;SDS011;4133;48.752;9.088;2023-04-21T00:36:49;45.50;;;12.00;;
8183;SDS011;4133;48.752;9.088;2023-04-21T00:39:15;36.67;;;12.07;;
8183;SDS011;4133;48.752;9.088;2023-04-21T00:41:41;35.57;;;12.80;;
8183;SDS011;4133;48.752;9.088;2023-04-21T00:44:08;35.90;;;13.53;;
8183;SDS011;4133;48.752;9.088;2023-04-21T00:46:34;93.47;;;16.73;;
8183;SDS011;4133;48.752;9.088;2023-04-21T00:52:04;19.30;;;12.10;;
8183;SDS011;4133;48.752;9.088;2023-04-21T00:54:31;17.13;;;12.27;;
8183;SDS011;4133;48.752;9.088;2023-04-21T00:56:57;17.07;;;11.80;;
8183;SDS011;4133;48.752;9.088;2023-04-21T00:59:23;18.07;;;12.17;;
8183;SDS011;4133;48.752;9.088;2023-04-21T01:01:49;20.23;;;13.63;;
8183;SDS011;4133;48.752;9.088;2023-04-21T01:04:16;19.40;;;12.80;;
8183;SDS011;4133;48.752;9.088;2023-04-21T01:06:42;17.10;;;12.23;;
8183;SDS011;4133;48.752;9.088;2023-04-21T01:09:08;17.33;;;11.67;;
8183;SDS011;4133;48.752;9.088;2023-04-21T01:11:36;16.00;;;10.80;;
8183;SDS011;4133;48.752;9.088;2023-04-21T01:14:03;17.47;;;12.07;;
8183;SDS011;4133;48.752;9.088;2023-04-21T01:16:29;16.27;;;11.87;;
8183;SDS011;4133;48.752;9.088;2023-04-21T01:18:59;16.23;;;11.17;;
8183;SDS011;4133;48.752;9.088;2023-04-21T01:21:25;16.53;;;11.67;;
8183;SDS011;4133;48.752;9.088;2023-04-21T01:23:53;17.60;;;10.87;;
8183;SDS011;4133;48.752;9.088;2023-04-21T01:26:19;16.00;;;11.30;;
8183;SDS011;4133;48.752;9.088;2023-04-21T01:28:45;17.50;;;10.93;;
8183;SDS011;4133;48.752;9.088;2023-04-21T01:31:13;15.93;;;11.07;;
8183;SDS011;4133;48.752;9.088;2023-04-21T01:33:39;14.83;;;10.97;;
8183;SDS011;4133;48.752;9.088;2023-04-21T01:36:05;14.77;;;10.97;;
8183;SDS011;4133;48.752;9.088;2023-04-21T01:38:31;17.63;;;11.77;;
8183;SDS011;4133;48.752;9.088;2023-04-21T01:40:57;17.80;;;13.03;;
8183;SDS011;4133;48.752;9.088;2023-04-21T01:43:24;16.43;;;12.40;;
8183;SDS011;4133;48.752;9.088;2023-04-21T01:45:50;17.13;;;12.17;;
8183;SDS011;4133;48.752;9.088;2023-04-21T01:48:18;17.77;;;12.30;;
8183;SDS011;4133;48.752;9.088;2023-04-21T01:50:44;17.67;;;12.53;;
8183;SDS011;4133;48.752;9.088;2023-04-21T01:53:10;16.80;;;11.93;;
8183;SDS011;4133;48.752;9.088;2023-04-21T01:55:36;21.50;;;11.63;;
8183;SDS011;4133;48.752;9.088;2023-04-21T01:58:02;15.50;;;10.97;;
8183;SDS011;4133;48.752;9.088;2023-04-21T02:00:28;17.80;;;11.70;;
8183;SDS011;4133;48.752;9.088;2023-04-21T02:02:54;17.17;;;12.03;;
8183;SDS011;4133;48.752;9.088;2023-04-21T02:05:20;17.53;;;11.80;;
8183;SDS011;4133;48.752;9.088;2023-04-21T02:07:46;17.67;;;12.27;;
8183;SDS011;4133;48.752;9.088;2023-04-21T02:10:12;17.43;;;11.33;;
8183;SDS011;4133;48.752;9.088;2023-04-21T02:12:38;18.37;;;11.73;;
8183;SDS011;4133;48.752;9.088;2023-04-21T02:15:04;17.33;;;11.60;;
8183;SDS011;4133;48.752;9.088;2023-04-21T02:17:31;16.03;;;11.23;;
8183;SDS011;4133;48.752;9.088;2023-04-21T02:19:56;14.60;;;10.70;;
8183;SDS011;4133;48.752;9.088;2023-04-21T02:22:23;18.50;;;12.27;;
8183;SDS011;4133;48.752;9.088;2023-04-21T02:24:49;19.07;;;12.50;;
8183;SDS011;4133;48.752;9.088;2023-04-21T02:27:15;17.13;;;11.33;;
8183;SDS011;4133;48.752;9.088;2023-04-21T02:29:41;19.53;;;12.60;;
8183;SDS011;4133;48.752;9.088;2023-04-21T02:32:07;21.37;;;14.30;;
8183;SDS011;4133;48.752;9.088;2023-04-21T02:34:33;18.50;;;12.67;;
8183;SDS011;4133;48.752;9.088;2023-04-21T02:36:59;20.00;;;12.37;;
8183;SDS011;4133;48.752;9.088;2023-04-21T02:39:26;19.87;;;13.00;;
8183;SDS011;4133;48.752;9.088;2023-04-21T02:41:52;22.23;;;12.77;;
8183;SDS011;4133;48.752;9.088;2023-04-21T02:44:18;17.53;;;12.40;;
8183;SDS011;4133;48.752;9.088;2023-04-21T02:46:44;20.57;;;13.33;;
8183;SDS011;4133;48.752;9.088;2023-04-21T02:49:16;15.60;;;10.90;;
8183;SDS011;4133;48.752;9.088;2023-04-21T02:51:42;16.67;;;11.80;;
8183;SDS011;4133;48.752;9.088;2023-04-21T02:54:08;20.83;;;12.03;;
8183;SDS011;4133;48.752;9.088;2023-04-21T02:56:35;19.90;;;12.23;;
8183;SDS011;4133;48.752;9.088;2023-04-21T02:59:01;20.43;;;12.30;;
8183;SDS011;4133;48.752;9.088;2023-04-21T03:01:27;19.90;;;13.00;;
8183;SDS011;4133;48.752;9.088;2023-04-21T03:03:53;19.40;;;12.50;;
8183;SDS011;4133;48.752;9.088;2023-04-21T03:06:19;20.23;;;13.07;;
8183;SDS011;4133;48.752;9.088;2023-04-21T03:08:45;19.07;;;12.30;;
8183;SDS011;4133;48.752;9.088;2023-04-21T03:11:11;18.50;;;11.90;;
8183;SDS011;4133;48.752;9.088;2023-04-21T03:13:37;21.47;;;12.03;;
8183;SDS011;4133;48.752;9.088;2023-04-21T03:16:03;19.73;;;12.07;;
8183;SDS011;4133;48.752;9.088;2023-04-21T03:18:29;17.00;;;11.37;;
8183;SDS011;4133;48.752;9.088;2023-04-21T03:20:58;17.90;;;11.73;;
8183;SDS011;4133;48.752;9.088;2023-04-21T03:23:25;17.33;;;11.83;;
8183;SDS011;4133;48.752;9.088;2023-04-21T03:25:51;18.67;;;11.93;;
8183;SDS011;4133;48.752;9.088;2023-04-21T03:28:17;18.43;;;11.73;;
8183;SDS011;4133;48.752;9.088;2023-04-21T03:30:43;17.57;;;12.10;;
8183;SDS011;4133;48.752;9.088;2023-04-21T03:33:09;16.23;;;11.27;;
8183;SDS011;4133;48.752;9.088;2023-04-21T03:35:35;14.87;;;11.13;;
8183;SDS011;4133;48.752;9.088;2023-04-21T03:38:01;16.27;;;10.90;;
8183;SDS011;4133;48.752;9.088;2023-04-21T03:40:27;15.67;;;10.83;;
8183;SDS011;4133;48.752;9.088;2023-04-21T03:42:54;17.27;;;11.67;;
8183;SDS011;4133;48.752;9.088;2023-04-21T03:45:19;13.77;;;10.33;;
8183;SDS011;4133;48.752;9.088;2023-04-21T03:50:15;12.70;;;9.47;;
8183;SDS011;4133;48.752;9.088;2023-04-21T03:52:41;13.53;;;9.50;;
8183;SDS011;4133;48.752;9.088;2023-04-21T03:55:07;13.13;;;10.00;;
8183;SDS011;4133;48.752;9.088;2023-04-21T03:57:35;18.93;;;9.87;;
8183;SDS011;4133;48.752;9.088;2023-04-21T04:00:02;16.13;;;10.30;;
8183;SDS011;4133;48.752;9.088;2023-04-21T04:02:29;28.57;;;17.47;;
8183;SDS011;4133;48.752;9.088;2023-04-21T04:04:55;18.23;;;11.30;;
8183;SDS011;4133;48.752;9.088;2023-04-21T04:07:21;18.03;;;11.07;;
8183;SDS011;4133;48.752;9.088;2023-04-21T04:09:47;12.57;;;9.83;;
8183;SDS011;4133;48.752;9.088;2023-04-21T04:12:13;14.77;;;10.67;;
8183;SDS011;4133;48.752;9.088;2023-04-21T04:14:39;15.57;;;10.47;;
8183;SDS011;4133;48.752;9.088;2023-04-21T04:17:05;13.77;;;10.37;;
8183;SDS011;4133;48.752;9.088;2023-04-21T04:19:31;17.87;;;11.73;;
8183;SDS011;4133;48.752;9.088;2023-04-21T04:21:58;17.57;;;11.37;;
8183;SDS011;4133;48.752;9.088;2023-04-21T04:24:25;15.93;;;11.17;;
8183;SDS011;4133;48.752;9.088;2023-04-21T04:26:51;17.00;;;10.77;;
8183;SDS011;4133;48.752;9.088;2023-04-21T04:29:21;15.67;;;10.57;;
8183;SDS011;4133;48.752;9.088;2023-04-21T04:31:48;14.77;;;10.87;;
8183;SDS011;4133;48.752;9.088;2023-04-21T04:34:14;20.00;;;11.70;;
8183;SDS011;4133;48.752;9.088;2023-04-21T04:36:41;20.10;;;12.43;;
8183;SDS011;4133;48.752;9.088;2023-04-21T04:39:07;13.70;;;10.03;;
8183;SDS011;4133;48.752;9.088;2023-04-21T04:41:34;14.20;;;10.00;;
8183;SDS011;4133;48.752;9.088;2023-04-21T04:44:00;13.30;;;9.60;;
8183;SDS011;4133;48.752;9.088;2023-04-21T04:46:29;13.33;;;9.77;;
8183;SDS011;4133;48.752;9.088;2023-04-21T04:52:03;15.63;;;10.23;;
8183;SDS011;4133;48.752;9.088;2023-04-21T04:54:29;15.63;;;11.30;;
8183;SDS011;4133;48.752;9.088;2023-04-21T04:56:55;17.10;;;11.10;;
8183;SDS011;4133;48.752;9.088;2023-04-21T04:59:23;15.33;;;10.07;;
8183;SDS011;4133;48.752;9.088;2023-04-21T05:01:49;15.23;;;10.33;;
8183;SDS011;4133;48.752;9.088;2023-04-21T05:04:16;15.47;;;10.87;;
8183;SDS011;4133;48.752;9.088;2023-04-21T05:06:42;15.70;;;10.37;;
8183;SDS011;4133;48.752;9.088;2023-04-21T05:09:08;13.53;;;10.50;;
8183;SDS011;4133;48.752;9.088;2023-04-21T05:11:34;12.97;;;9.77;;
8183;SDS011;4133;48.752;9.088;2023-04-21T05:14:00;13.63;;;9.80;;
8183;SDS011;4133;48.752;9.088;2023-04-21T05:16:26;14.43;;;10.27;;
8183;SDS011;4133;48.752;9.088;2023-04-21T05:18:52;15.73;;;10.57;;
8183;SDS011;4133;48.752;9.088;2023-04-21T05:21:22;16.80;;;11.43;;
8183;SDS011;4133;48.752;9.088;2023-04-21T05:23:48;19.20;;;11.67;;
8183;SDS011;4133;48.752;9.088;2023-04-21T05:26:14;17.30;;;11.67;;
8183;SDS011;4133;48.752;9.088;2023-04-21T05:28:40;17.30;;;12.07;;
8183;SDS011;4133;48.752;9.088;2023-04-21T05:31:06;17.67;;;12.03;;
8183;SDS011;4133;48.752;9.088;2023-04-21T05:33:32;16.40;;;11.80;;
8183;SDS011;4133;48.752;9.088;2023-04-21T05:35:58;15.37;;;10.83;;
8183;SDS011;4133;48.752;9.088;2023-04-21T05:38:24;15.90;;;11.20;;
8183;SDS011;4133;48.752;9.088;2023-04-21T05:40:52;13.63;;;10.50;;
8183;SDS011;4133;48.752;9.088;2023-04-21T05:43:19;13.90;;;10.17;;
8183;SDS011;4133;48.752;9.088;2023-04-21T05:45:45;16.10;;;10.97;;
8183;SDS011;4133;48.752;9.088;2023-04-21T05:48:11;12.97;;;9.60;;
8183;SDS011;4133;48.752;9.088;2023-04-21T05:50:37;12.80;;;9.77;;
8183;SDS011;4133;48.752;9.088;2023-04-21T05:53:03;14.77;;;10.60;;
8183;SDS011;4133;48.752;9.088;2023-04-21T05:55:29;13.67;;;9.73;;
8183;SDS011;4133;48.752;9.088;2023-04-21T05:57:55;16.27;;;11.70;;
8183;SDS011;4133;48.752;9.088;2023-04-21T06:00:21;13.47;;;10.27;;
8183;SDS011;4133;48.752;9.088;2023-04-21T06:02:47;15.63;;;11.60;;
8183;SDS011;4133;48.752;9.088;2023-04-21T06:05:13;15.90;;;11.97;;
8183;SDS011;4133;48.752;9.088;2023-04-21T06:07:39;17.57;;;12.63;;
8183;SDS011;4133;48.752;9.088;2023-04-21T06:10:05;13.00;;;9.63;;
8183;SDS011;4133;48.752;9.088;2023-04-21T06:12:31;15.87;;;10.33;;
8183;SDS011;4133;48.752;9.088;2023-04-21T06:14:57;13.03;;;10.37;;
8183;SDS011;4133;48.752;9.088;2023-04-21T06:17:23;14.70;;;11.33;;
8183;SDS011;4133;48.752;9.088;2023-04-21T06:19:49;16.10;;;11.30;;
8183;SDS011;4133;48.752;9.088;2023-04-21T06:22:23;15.07;;;10.63;;
8183;SDS011;4133;48.752;9.088;2023-04-21T06:24:49;16.37;;;11.47;;
8183;SDS011;4133;48.752;9.088;2023-04-21T06:27:15;16.53;;;12.17;;
8183;SDS011;4133;48.752;9.088;2023-04-21T06:29:42;17.13;;;11.97;;
8183;SDS011;4133;48.752;9.088;2023-04-21T06:32:08;15.57;;;10.47;;
8183;SDS011;4133;48.752;9.088;2023-04-21T06:34:34;10.40;;;8.87;;
8183;SDS011;4133;48.752;9.088;2023-04-21T06:37:00;11.70;;;8.33;;
8183;SDS011;4133;48.752;9.088;2023-04-21T06:39:26;11.47;;;8.47;;
8183;SDS011;4133;48.752;9.088;2023-04-21T06:41:52;11.90;;;9.00;;
8183;SDS011;4133;48.752;9.088;2023-04-21T06:44:19;11.13;;;9.20;;
8183;SDS011;4133;48.752;9.088;2023-04-21T06:46:45;14.90;;;11.13;;
8183;SDS011;4133;48.752;9.088;2023-04-21T06:49:29;15.10;;;10.67;;
8183;SDS011;4133;48.752;9.088;2023-04-21T06:51:57;14.97;;;10.23;;
8183;SDS011;4133;48.752;9.088;2023-04-21T06:54:23;14.37;;;10.50;;
8183;SDS011;4133;48.752;9.088;2023-04-21T06:56:49;13.13;;;10.40;;
8183;SDS011;4133;48.752;9.088;2023-04-21T06:59:15;15.30;;;12.17;;
8183;SDS011;4133;48.752;9.088;2023-04-21T07:01:41;15.47;;;12.40;;
8183;SDS011;4133;48.752;9.088;2023-04-21T07:04:08;19.80;;;14.67;;
8183;SDS011;4133;48.752;9.088;2023-04-21T07:06:34;20.60;;;14.27;;
8183;SDS011;4133;48.752;9.088;2023-04-21T07:09:00;19.90;;;14.93;;
8183;SDS011;4133;48.752;9.088;2023-04-21T07:11:26;15.60;;;12.63;;
8183;SDS011;4133;48.752;9.088;2023-04-21T07:13:52;23.40;;;17.47;;
8183;SDS011;4133;48.752;9.088;2023-04-21T07:16:19;26.23;;;17.60;;
8183;SDS011;4133;48.752;9.088;2023-04-21T07:18:45;25.37;;;17.93;;
8183;SDS011;4133;48.752;9.088;2023-04-21T07:21:11;26.47;;;18.27;;
8183;SDS011;4133;48.752;9.088;2023-04-21T07:23:37;27.00;;;17.97;;
8183;SDS011;4133;48.752;9.088;2023-04-21T07:26:03;22.53;;;16.53;;
8183;SDS011;4133;48.752;9.088;2023-04-21T07:28:29;24.77;;;16.23;;
8183;SDS011;4133;48.752;9.088;2023-04-21T07:30:55;23.40;;;19.60;;
8183;SDS011;4133;48.752;9.088;2023-04-21T07:33:21;21.27;;;16.70;;
8183;SDS011;4133;48.752;9.088;2023-04-21T07:35:47;21.47;;;16.10;;
8183;SDS011;4133;48.752;9.088;2023-04-21T07:38:13;21.53;;;17.00;;
8183;SDS011;4133;48.752;9.088;2023-04-21T07:40:39;21.07;;;16.20;;
8183;SDS011;4133;48.752;9.088;2023-04-21T07:43:05;22.77;;;16.93;;
8183;SDS011;4133;48.752;9.088;2023-04-21T07:45:31;23.93;;;16.43;;
8183;SDS011;4133;48.752;9.088;2023-04-21T07:48:06;21.70;;;15.83;;
8183;SDS011;4133;48.752;9.088;2023-04-21T07:50:32;18.97;;;15.20;;
8183;SDS011;4133;48.752;9.088;2023-04-21T07:53:01;18.50;;;14.60;;
8183;SDS011;4133;48.752;9.088;2023-04-21T07:55:28;20.33;;;15.17;;
8183;SDS011;4133;48.752;9.088;2023-04-21T07:57:54;17.20;;;14.27;;
8183;SDS011;4133;48.752;9.088;2023-04-21T08:00:20;19.40;;;14.60;;
8183;SDS011;4133;48.752;9.088;2023-04-21T08:02:46;19.20;;;14.00;;
8183;SDS011;4133;48.752;9.088;2023-04-21T08:05:12;16.60;;;13.07;;
8183;SDS011;4133;48.752;9.088;2023-04-21T08:07:38;15.73;;;12.67;;
8183;SDS011;4133;48.752;9.088;2023-04-21T08:10:05;15.20;;;12.40;;
8183;SDS011;4133;48.752;9.088;2023-04-21T08:12:31;13.33;;;10.87;;
8183;SDS011;4133;48.752;9.088;2023-04-21T08:14:57;13.10;;;10.50;;
8183;SDS011;4133;48.752;9.088;2023-04-21T08:17:23;12.57;;;9.47;;
8183;SDS011;4133;48.752;9.088;2023-04-21T08:19:49;9.50;;;8.57;;
8183;SDS011;4133;48.752;9.088;2023-04-21T08:22:15;11.60;;;8.67;;
8183;SDS011;4133;48.752;9.088;2023-04-21T08:24:41;9.93;;;8.63;;
8183;SDS011;4133;48.752;9.088;2023-04-21T08:27:07;8.13;;;7.30;;
8183;SDS011;4133;48.752;9.088;2023-04-21T08:29:33;6.13;;;5.53;;
8183;SDS011;4133;48.752;9.088;2023-04-21T08:31:59;7.73;;;6.67;;
8183;SDS011;4133;48.752;9.088;2023-04-21T08:34:25;10.43;;;7.90;;
8183;SDS011;4133;48.752;9.088;2023-04-21T08:36:51;8.50;;;6.73;;
8183;SDS011;4133;48.752;9.088;2023-04-21T08:39:17;8.57;;;6.80;;
8183;SDS011;4133;48.752;9.088;2023-04-21T08:41:43;6.27;;;5.33;;
8183;SDS011;4133;48.752;9.088;2023-04-21T08:44:09;5.43;;;4.67;;
8183;SDS011;4133;48.752;9.088;2023-04-21T08:46:35;5.70;;;5.10;;
8183;SDS011;4133;48.752;9.088;2023-04-21T08:49:03;6.60;;;5.77;;
8183;SDS011;4133;48.752;9.088;2023-04-21T08:51:30;6.67;;;5.40;;
8183;SDS011;4133;48.752;9.088;2023-04-21T08:53:56;7.67;;;6.30;;
8183;SDS011;4133;48.752;9.088;2023-04-21T08:56:23;7.53;;;6.57;;
8183;SDS011;4133;48.752;9.088;2023-04-21T08:58:50;7.60;;;6.77;;
8183;SDS011;4133;48.752;9.088;2023-04-21T09:01:16;6.80;;;6.10;;
8183;SDS011;4133;48.752;9.088;2023-04-21T09:03:42;7.47;;;6.30;;
8183;SDS011;4133;48.752;9.088;2023-04-21T09:06:08;6.70;;;5.90;;
8183;SDS011;4133;48.752;9.088;2023-04-21T09:08:37;5.63;;;4.97;;
8183;SDS011;4133;48.752;9.088;2023-04-21T09:11:03;5.37;;;4.87;;
8183;SDS011;4133;48.752;9.088;2023-04-21T09:13:31;5.20;;;4.70;;
8183;SDS011;4133;48.752;9.088;2023-04-21T09:15:57;5.10;;;4.50;;
8183;SDS011;4133;48.752;9.088;2023-04-21T09:18:24;6.37;;;4.50;;
8183;SDS011;4133;48.752;9.088;2023-04-21T09:21:12;4.80;;;4.20;;
8183;SDS011;4133;48.752;9.088;2023-04-21T09:26:06;4.40;;;4.00;;
8183;SDS011;4133;48.752;9.088;2023-04-21T09:28:32;5.80;;;4.37;;
8183;SDS011;4133;48.752;9.088;2023-04-21T09:30:58;6.20;;;4.03;;
8183;SDS011;4133;48.752;9.088;2023-04-21T09:33:24;5.80;;;5.10;;
8183;SDS011;4133;48.752;9.088;2023-04-21T09:35:50;5.70;;;4.70;;
8183;SDS011;4133;48.752;9.088;2023-04-21T09:38:17;5.20;;;4.70;;
8183;SDS011;4133;48.752;9.088;2023-04-21T09:40:55;5.20;;;4.50;;
8183;SDS011;4133;48.752;9.088;2023-04-21T09:43:21;5.07;;;4.57;;
8183;SDS011;4133;48.752;9.088;2023-04-21T09:45:48;5.10;;;4.57;;
8183;SDS011;4133;48.752;9.088;2023-04-21T09:50:43;6.97;;;4.60;;
8183;SDS011;4133;48.752;9.088;2023-04-21T09:53:13;4.55;;;4.15;;
8183;SDS011;4133;48.752;9.088;2023-04-21T09:55:40;4.23;;;3.83;;
8183;SDS011;4133;48.752;9.088;2023-04-21T09:58:07;5.65;;;4.40;;
8183;SDS011;4133;48.752;9.088;2023-04-21T10:00:34;4.38;;;3.95;;
8183;SDS011;4133;48.752;9.088;2023-04-21T10:03:03;4.93;;;4.40;;
8183;SDS011;4133;48.752;9.088;2023-04-21T10:05:34;4.72;;;4.28;;
8183;SDS011;4133;48.752;9.088;2023-04-21T10:08:00;5.07;;;4.50;;
8183;SDS011;4133;48.752;9.088;2023-04-21T10:10:27;4.95;;;3.95;;
8183;SDS011;4133;48.752;9.088;2023-04-21T10:12:55;4.85;;;4.30;;
8183;SDS011;4133;48.752;9.088;2023-04-21T10:15:37;5.60;;;5.03;;
8183;SDS011;4133;48.752;9.088;2023-04-21T10:18:37;5.03;;;4.50;;
8183;SDS011;4133;48.752;9.088;2023-04-21T10:23:28;5.43;;;4.35;;
8183;SDS011;4133;48.752;9.088;2023-04-21T10:26:01;5.10;;;4.60;;
8183;SDS011;4133;48.752;9.088;2023-04-21T10:28:47;5.00;;;4.47;;
8183;SDS011;4133;48.752;9.088;2023-04-21T10:31:35;5.00;;;4.50;;
8183;SDS011;4133;48.752;9.088;2023-04-21T10:37:15;4.93;;;4.50;;
8183;SDS011;4133;48.752;9.088;2023-04-21T10:39:25;5.10;;;4.63;;
8183;SDS011;4133;48.752;9.088;2023-04-21T10:41:53;7.28;;;5.25;;
8183;SDS011;4133;48.752;9.088;2023-04-21T10:44:20;5.90;;;4.82;;
8183;SDS011;4133;48.752;9.088;2023-04-21T10:46:47;7.15;;;4.68;;
8183;SDS011;4133;48.752;9.088;2023-04-21T10:49:20;4.70;;;4.30;;
8183;SDS011;4133;48.752;9.088;2023-04-21T10:57:00;6.03;;;5.40;;
8183;SDS011;4133;48.752;9.088;2023-04-21T10:59:27;5.30;;;4.80;;
8183;SDS011;4133;48.752;9.088;2023-04-21T11:01:53;5.38;;;4.80;;
8183;SDS011;4133;48.752;9.088;2023-04-21T11:04:20;5.38;;;4.80;;
8183;SDS011;4133;48.752;9.088;2023-04-21T11:07:05;6.57;;;5.60;;
8183;SDS011;4133;48.752;9.088;2023-04-21T11:09:32;6.28;;;5.63;;
8183;SDS011;4133;48.752;9.088;2023-04-21T11:11:58;7.65;;;5.75;;
8183;SDS011;4133;48.752;9.088;2023-04-21T11:14:26;6.47;;;5.82;;
8183;SDS011;4133;48.752;9.088;2023-04-21T11:16:52;6.65;;;5.53;;
8183;SDS011;4133;48.752;9.088;2023-04-21T11:19:18;6.15;;;5.55;;
8183;SDS011;4133;48.752;9.088;2023-04-21T11:21:48;6.90;;;6.30;;
8183;SDS011;4133;48.752;9.088;2023-04-21T11:24:14;9.77;;;6.68;;
8183;SDS011;4133;48.752;9.088;2023-04-21T11:26:40;7.00;;;6.30;;
8183;SDS011;4133;48.752;9.088;2023-04-21T11:29:08;6.68;;;5.60;;
8183;SDS011;4133;48.752;9.088;2023-04-21T11:31:34;6.22;;;5.63;;
8183;SDS011;4133;48.752;9.088;2023-04-21T11:34:00;6.35;;;5.75;;
8183;SDS011;4133;48.752;9.088;2023-04-21T11:36:31;6.35;;;5.75;;
8183;SDS011;4133;48.752;9.088;2023-04-21T11:38:57;7.00;;;6.30;;
8183;SDS011;4133;48.752;9.088;2023-04-21T11:41:23;5.90;;;5.30;;
8183;SDS011;4133;48.752;9.088;2023-04-21T11:43:52;6.70;;;6.00;;
8183;SDS011;4133;48.752;9.088;2023-04-21T11:46:25;6.57;;;5.88;;
8183;SDS011;4133;48.752;9.088;2023-04-21T11:51:56;6.03;;;5.43;;
8183;SDS011;4133;48.752;9.088;2023-04-21T11:54:22;6.10;;;5.10;;
8183;SDS011;4133;48.752;9.088;2023-04-21T11:56:48;4.72;;;4.32;;
8183;SDS011;4133;48.752;9.088;2023-04-21T11:59:16;6.43;;;5.82;;
8183;SDS011;4133;48.752;9.088;2023-04-21T12:01:50;6.93;;;5.47;;
8183;SDS011;4133;48.752;9.088;2023-04-21T12:04:17;5.85;;;4.82;;
8183;SDS011;4133;48.752;9.088;2023-04-21T12:06:44;5.72;;;4.60;;
8183;SDS011;4133;48.752;9.088;2023-04-21T12:09:17;4.72;;;4.32;;
8183;SDS011;4133;48.752;9.088;2023-04-21T12:11:47;5.78;;;4.70;;
8183;SDS011;4133;48.752;9.088;2023-04-21T12:14:14;4.88;;;4.35;;
8183;SDS011;4133;48.752;9.088;2023-04-21T12:16:41;6.03;;;4.90;;
8183;SDS011;4133;48.752;9.088;2023-04-21T12:19:07;4.55;;;4.13;;
8183;SDS011;4133;48.752;9.088;2023-04-21T12:21:35;4.53;;;3.95;;
8183;SDS011;4133;48.752;9.088;2023-04-21T12:24:01;4.28;;;3.88;;
8183;SDS011;4133;48.752;9.088;2023-04-21T12:26:28;4.60;;;4.20;;
8183;SDS011;4133;48.752;9.088;2023-04-21T12:28:54;4.75;;;4.35;;
8183;SDS011;4133;48.752;9.088;2023-04-21T12:31:20;4.03;;;3.67;;
8183;SDS011;4133;48.752;9.088;2023-04-21T12:33:46;4.78;;;3.75;;
8183;SDS011;4133;48.752;9.088;2023-04-21T12:36:12;5.43;;;3.78;;
8183;SDS011;4133;48.752;9.088;2023-04-21T12:38:38;4.43;;;3.95;;
8183;SDS011;4133;48.752;9.088;2023-04-21T12:41:04;4.32;;;3.97;;
8183;SDS011;4133;48.752;9.088;2023-04-21T12:43:30;4.65;;;4.25;;
8183;SDS011;4133;48.752;9.088;2023-04-21T12:45:56;5.25;;;4.20;;
8183;SDS011;4133;48.752;9.088;2023-04-21T12:48:23;4.25;;;3.85;;
8183;SDS011;4133;48.752;9.088;2023-04-21T12:50:49;3.80;;;3.50;;
8183;SDS011;4133;48.752;9.088;2023-04-21T12:53:15;4.45;;;4.05;;
8183;SDS011;4133;48.752;9.088;2023-04-21T12:55:41;3.80;;;3.50;;
8183;SDS011;4133;48.752;9.088;2023-04-21T12:58:07;4.20;;;3.80;;
8183;SDS011;4133;48.752;9.088;2023-04-21T13:00:33;3.90;;;3.60;;
8183;SDS011;4133;48.752;9.088;2023-04-21T13:03:00;5.57;;;4.05;;
8183;SDS011;4133;48.752;9.088;2023-04-21T13:05:26;4.55;;;4.15;;
8183;SDS011;4133;48.752;9.088;2023-04-21T13:07:52;5.53;;;4.32;;
8183;SDS011;4133;48.752;9.088;2023-04-21T13:10:19;3.88;;;3.58;;
8183;SDS011;4133;48.752;9.088;2023-04-21T13:12:45;3.97;;;3.58;;
8183;SDS011;4133;48.752;9.088;2023-04-21T13:15:11;4.07;;;3.67;;
8183;SDS011;4133;48.752;9.088;2023-04-21T13:17:37;4.88;;;3.08;;
8183;SDS011;4133;48.752;9.088;2023-04-21T13:20:03;4.45;;;3.03;;
8183;SDS011;4133;48.752;9.088;2023-04-21T13:22:30;3.40;;;3.10;;
8183;SDS011;4133;48.752;9.088;2023-04-21T13:24:56;3.63;;;3.30;;
8183;SDS011;4133;48.752;9.088;2023-04-21T13:27:22;3.83;;;3.33;;
8183;SDS011;4133;48.752;9.088;2023-04-21T13:29:48;3.90;;;3.50;;
8183;SDS011;4133;48.752;9.088;2023-04-21T13:32:14;3.47;;;3.17;;
8183;SDS011;4133;48.752;9.088;2023-04-21T13:34:40;4.20;;;3.80;;
8183;SDS011;4133;48.752;9.088;2023-04-21T13:37:06;5.35;;;3.28;;
8183;SDS011;4133;48.752;9.088;2023-04-21T13:39:36;3.72;;;3.22;;
8183;SDS011;4133;48.752;9.088;2023-04-21T13:42:02;2.97;;;2.78;;
8183;SDS011;4133;48.752;9.088;2023-04-21T13:44:28;3.17;;;2.83;;
8183;SDS011;4133;48.752;9.088;2023-04-21T13:46:54;3.58;;;3.10;;
8183;SDS011;4133;48.752;9.088;2023-04-21T13:49:21;3.13;;;2.85;;
8183;SDS011;4133;48.752;9.088;2023-04-21T13:51:47;3.10;;;2.80;;
8183;SDS011;4133;48.752;9.088;2023-04-21T13:54:13;2.92;;;2.50;;
8183;SDS011;4133;48.752;9.088;2023-04-21T13:56:39;4.60;;;2.83;;
8183;SDS011;4133;48.752;9.088;2023-04-21T13:59:05;2.60;;;2.40;;
8183;SDS011;4133;48.752;9.088;2023-04-21T14:01:31;2.70;;;2.50;;
8183;SDS011;4133;48.752;9.088;2023-04-21T14:03:57;3.35;;;2.75;;
8183;SDS011;4133;48.752;9.088;2023-04-21T14:06:23;3.80;;;2.78;;
8183;SDS011;4133;48.752;9.088;2023-04-21T14:08:50;2.85;;;2.65;;
8183;SDS011;4133;48.752;9.088;2023-04-21T14:11:16;2.55;;;2.35;;
8183;SDS011;4133;48.752;9.088;2023-04-21T14:13:42;3.05;;;2.85;;
8183;SDS011;4133;48.752;9.088;2023-04-21T14:16:08;3.35;;;2.90;;
8183;SDS011;4133;48.752;9.088;2023-04-21T14:18:34;3.10;;;2.40;;
8183;SDS011;4133;48.752;9.088;2023-04-21T14:21:02;3.08;;;2.65;;
8183;SDS011;4133;48.752;9.088;2023-04-21T14:23:28;5.03;;;2.40;;
8183;SDS011;4133;48.752;9.088;2023-04-21T14:25:54;2.47;;;2.10;;
8183;SDS011;4133;48.752;9.088;2023-04-21T14:28:20;2.50;;;2.30;;
8183;SDS011;4133;48.752;9.088;2023-04-21T14:30:46;2.55;;;1.80;;
8183;SDS011;4133;48.752;9.088;2023-04-21T14:33:12;2.90;;;1.92;;
8183;SDS011;4133;48.752;9.088;2023-04-21T14:35:38;3.08;;;2.28;;
8183;SDS011;4133;48.752;9.088;2023-04-21T14:38:04;3.40;;;2.25;;
8183;SDS011;4133;48.752;9.088;2023-04-21T14:40:31;3.83;;;2.30;;
8183;SDS011;4133;48.752;9.088;2023-04-21T14:42:57;3.13;;;2.40;;
8183;SDS011;4133;48.752;9.088;2023-04-21T14:45:23;2.38;;;2.03;;
8183;SDS011;4133;48.752;9.088;2023-04-21T14:47:49;2.03;;;1.92;;
8183;SDS011;4133;48.752;9.088;2023-04-21T14:50:15;1.75;;;1.65;;
8183;SDS011;4133;48.752;9.088;2023-04-21T14:52:41;2.13;;;1.90;;
8183;SDS011;4133;48.752;9.088;2023-04-21T14:55:07;1.70;;;1.60;;
8183;SDS011;4133;48.752;9.088;2023-04-21T14:57:34;1.65;;;1.55;;
8183;SDS011;4133;48.752;9.088;2023-04-21T14:59:59;1.95;;;1.80;;
8183;SDS011;4133;48.752;9.088;2023-04-21T15:02:26;1.70;;;1.60;;
8183;SDS011;4133;48.752;9.088;2023-04-21T15:04:53;1.70;;;1.60;;
8183;SDS011;4133;48.752;9.088;2023-04-21T15:07:19;1.92;;;1.83;;
8183;SDS011;4133;48.752;9.088;2023-04-21T15:09:45;1.88;;;1.77;;
8183;SDS011;4133;48.752;9.088;2023-04-21T15:12:12;1.65;;;1.55;;
8183;SDS011;4133;48.752;9.088;2023-04-21T15:14:38;1.70;;;1.60;;
8183;SDS011;4133;48.752;9.088;2023-04-21T15:17:05;3.85;;;1.90;;
8183;SDS011;4133;48.752;9.088;2023-04-21T15:19:31;2.20;;;1.70;;
8183;SDS011;4133;48.752;9.088;2023-04-21T15:21:57;3.53;;;1.70;;
8183;SDS011;4133;48.752;9.088;2023-04-21T15:24:23;4.10;;;1.80;;